Time;durP1;ratioP1;P1;durP2;ratioP2;P2;SDS_P1;SDS_P2;PMS_P1;PMS_P2;Temp;Humidity;BMP_temperature;BMP_pressure;BME280_temperature;BME280_humidity;BME280_pressure;Samples;Min_cycle;Max_cycle;Signal;HPM_P1;HPM_P2
2022/06/16 00:01:01;;;;;;;10.93;2.58;;;;;;;;;;4939402;28;20855;-71
2022/06/16 00:03:29;;;;;;;12.40;2.90;;;;;;;;;;4940093;28;20493;-71
2022/06/16 00:05:56;;;;;;;10.50;3.25;;;;;;;;;;4933526;28;20022;-71
2022/06/16 00:08:24;;;;;;;15.52;3.60;;;;;;;;;;4941185;28;20169;-70
2022/06/16 00:13:37;;;;;;;13.82;2.95;;;;;;;;;;4939426;28;20151;-73
2022/06/16 00:16:05;;;;;;;12.52;2.75;;;;;;;;;;4938983;28;20106;-72
2022/06/16 00:18:32;;;;;;;11.45;3.20;;;;;;;;;;4942449;28;20038;-73
2022/06/16 00:21:00;;;;;;;20.98;3.58;;;;;;;;;;4939978;28;20026;-71
2022/06/16 00:23:27;;;;;;;11.10;2.50;;;;;;;;;;4944470;28;20154;-71
2022/06/16 00:25:55;;;;;;;12.20;3.20;;;;;;;;;;4937967;28;20039;-71
2022/06/16 00:28:22;;;;;;;11.25;2.97;;;;;;;;;;4943722;28;20030;-73
2022/06/16 00:30:50;;;;;;;13.25;3.75;;;;;;;;;;4955831;28;20445;-73
2022/06/16 00:33:17;;;;;;;10.45;2.90;;;;;;;;;;4961458;28;20370;-73
2022/06/16 00:35:44;;;;;;;13.48;3.00;;;;;;;;;;4956358;28;20062;-71
2022/06/16 00:38:12;;;;;;;11.65;3.00;;;;;;;;;;4956253;28;20128;-71
2022/06/16 00:40:40;;;;;;;12.68;3.38;;;;;;;;;;4960624;28;20030;-71
2022/06/16 00:43:10;;;;;;;12.57;2.80;;;;;;;;;;4955650;28;20068;-71
2022/06/16 00:45:46;;;;;;;9.38;2.50;;;;;;;;;;4960611;28;20033;-71
2022/06/16 00:48:15;;;;;;;8.65;2.47;;;;;;;;;;4957740;28;20038;-71
2022/06/16 00:50:45;;;;;;;10.93;2.40;;;;;;;;;;4941706;28;20841;-71
2022/06/16 00:53:12;;;;;;;13.43;2.45;;;;;;;;;;4962404;28;20665;-71
2022/06/16 00:55:39;;;;;;;9.98;2.58;;;;;;;;;;4962471;28;20050;-71
2022/06/16 00:58:07;;;;;;;9.27;2.50;;;;;;;;;;4943367;28;20026;-71
2022/06/16 01:00:36;;;;;;;8.63;2.30;;;;;;;;;;4956336;28;20033;-71
2022/06/16 01:03:04;;;;;;;10.68;2.53;;;;;;;;;;4954837;28;20042;-71
2022/06/16 01:05:30;;;;;;;14.70;2.60;;;;;;;;;;4957130;28;20516;-71
2022/06/16 01:07:58;;;;;;;9.73;2.30;;;;;;;;;;4954972;28;20037;-72
2022/06/16 01:10:30;;;;;;;8.52;2.08;;;;;;;;;;4958635;28;20037;-74
2022/06/16 01:15:45;;;;;;;12.05;2.38;;;;;;;;;;4957959;28;20045;-72
2022/06/16 01:18:31;;;;;;;9.35;2.40;;;;;;;;;;4958285;28;20038;-72
2022/06/16 01:21:04;;;;;;;9.27;2.20;;;;;;;;;;4955806;28;20081;-72
2022/06/16 01:23:30;;;;;;;8.55;2.55;;;;;;;;;;4958870;28;20042;-73
2022/06/16 01:26:15;;;;;;;9.13;2.38;;;;;;;;;;4956595;28;20504;-71
2022/06/16 01:28:59;;;;;;;8.52;2.67;;;;;;;;;;4942100;28;20085;-71
2022/06/16 01:31:43;;;;;;;10.95;2.40;;;;;;;;;;4958926;28;20105;-71
2022/06/16 01:34:09;;;;;;;11.27;2.60;;;;;;;;;;4957490;28;20116;-71
2022/06/16 01:36:43;;;;;;;11.15;2.53;;;;;;;;;;4964493;28;20451;-71
2022/06/16 01:39:18;;;;;;;11.60;2.40;;;;;;;;;;4955364;28;20054;-71
2022/06/16 01:41:48;;;;;;;9.05;2.00;;;;;;;;;;4953289;28;20500;-71
2022/06/16 01:44:18;;;;;;;8.27;2.20;;;;;;;;;;4940335;28;20114;-71
2022/06/16 01:46:46;;;;;;;7.75;2.10;;;;;;;;;;4954453;28;20558;-71
2022/06/16 01:49:18;;;;;;;9.57;2.28;;;;;;;;;;4954909;28;20023;-71
2022/06/16 01:51:49;;;;;;;8.15;2.03;;;;;;;;;;4936472;28;20445;-70
2022/06/16 01:54:25;;;;;;;8.93;2.40;;;;;;;;;;4960123;28;20022;-70
2022/06/16 01:56:59;;;;;;;8.30;2.00;;;;;;;;;;4951439;28;20104;-70
2022/06/16 01:59:28;;;;;;;9.75;2.42;;;;;;;;;;4958655;28;20018;-71
2022/06/16 02:01:59;;;;;;;8.45;2.00;;;;;;;;;;4956190;28;20027;-71
2022/06/16 02:04:29;;;;;;;10.57;2.30;;;;;;;;;;4957150;28;20104;-71
2022/06/16 02:07:00;;;;;;;8.38;1.65;;;;;;;;;;4957139;28;20741;-70
2022/06/16 02:09:40;;;;;;;9.15;2.00;;;;;;;;;;4960835;28;20122;-71
2022/06/16 02:12:10;;;;;;;11.48;2.00;;;;;;;;;;4958946;28;20034;-70
2022/06/16 02:14:43;;;;;;;7.90;1.70;;;;;;;;;;4957754;28;20096;-70
2022/06/16 02:17:10;;;;;;;9.95;2.00;;;;;;;;;;4953822;28;20457;-71
2022/06/16 02:19:38;;;;;;;5.93;1.70;;;;;;;;;;4939480;28;20565;-73
2022/06/16 02:22:07;;;;;;;9.65;1.90;;;;;;;;;;4932004;28;20109;-71
2022/06/16 02:24:34;;;;;;;6.22;1.73;;;;;;;;;;4954657;28;20026;-71
2022/06/16 02:27:02;;;;;;;10.25;1.80;;;;;;;;;;4938167;28;20434;-71
2022/06/16 02:29:39;;;;;;;7.38;1.90;;;;;;;;;;4958332;28;20055;-71
2022/06/16 02:32:24;;;;;;;15.55;2.63;;;;;;;;;;4941178;28;20030;-71
2022/06/16 02:34:51;;;;;;;9.82;1.80;;;;;;;;;;4969512;28;20089;-71
2022/06/16 02:37:36;;;;;;;10.15;2.10;;;;;;;;;;4983067;28;20664;-73
2022/06/16 02:40:22;;;;;;;8.57;2.05;;;;;;;;;;4974868;28;20121;-70
2022/06/16 02:43:08;;;;;;;8.80;1.70;;;;;;;;;;4978861;28;20040;-71
2022/06/16 02:45:47;;;;;;;7.47;1.90;;;;;;;;;;4983257;28;20070;-72
2022/06/16 02:48:32;;;;;;;9.07;1.85;;;;;;;;;;4974745;28;20037;-71
2022/06/16 02:51:20;;;;;;;5.75;1.67;;;;;;;;;;4972722;28;20049;-73
2022/06/16 02:54:20;;;;;;;8.80;1.70;;;;;;;;;;4975054;28;20439;-70
2022/06/16 02:56:56;;;;;;;9.60;1.80;;;;;;;;;;4978778;28;20474;-71
2022/06/16 02:59:37;;;;;;;8.30;2.10;;;;;;;;;;4986305;28;20750;-71
2022/06/16 03:02:05;;;;;;;10.25;1.73;;;;;;;;;;4979271;28;20029;-71
2022/06/16 03:04:36;;;;;;;10.65;2.20;;;;;;;;;;4978197;28;20436;-71
2022/06/16 03:07:03;;;;;;;8.90;2.00;;;;;;;;;;4963817;28;20214;-71
2022/06/16 03:09:29;;;;;;;9.90;2.45;;;;;;;;;;4946282;28;20029;-71
2022/06/16 03:11:57;;;;;;;11.57;2.30;;;;;;;;;;4957536;28;20030;-73
2022/06/16 03:14:23;;;;;;;10.35;2.25;;;;;;;;;;4976818;28;20362;-73
2022/06/16 03:16:49;;;;;;;9.05;2.20;;;;;;;;;;4978967;28;20030;-73
2022/06/16 03:19:17;;;;;;;11.75;2.20;;;;;;;;;;4982256;28;21871;-71
2022/06/16 03:21:44;;;;;;;12.48;2.17;;;;;;;;;;4978652;28;20116;-73
2022/06/16 03:24:11;;;;;;;11.63;2.53;;;;;;;;;;4979823;28;20316;-71
2022/06/16 03:26:37;;;;;;;12.77;3.10;;;;;;;;;;4978405;28;20034;-71
2022/06/16 03:29:03;;;;;;;13.30;2.60;;;;;;;;;;4973271;28;20030;-71
2022/06/16 03:31:29;;;;;;;10.20;2.33;;;;;;;;;;4960493;28;20719;-72
2022/06/16 03:33:56;;;;;;;10.32;2.60;;;;;;;;;;4972695;28;20710;-71
2022/06/16 03:36:22;;;;;;;10.25;2.03;;;;;;;;;;4976530;28;20044;-72
2022/06/16 03:38:48;;;;;;;10.80;2.30;;;;;;;;;;4979312;28;20029;-71
2022/06/16 03:41:14;;;;;;;9.23;2.10;;;;;;;;;;4981496;28;20586;-70
2022/06/16 03:43:40;;;;;;;8.55;2.00;;;;;;;;;;4963286;28;20149;-71
2022/06/16 03:46:07;;;;;;;10.77;2.08;;;;;;;;;;4975197;28;20604;-71
2022/06/16 03:48:34;;;;;;;10.18;1.77;;;;;;;;;;4981356;28;20042;-71
2022/06/16 03:51:00;;;;;;;7.97;2.03;;;;;;;;;;4981193;28;20260;-71
2022/06/16 03:53:26;;;;;;;7.07;1.70;;;;;;;;;;4966259;28;20362;-73
2022/06/16 03:55:55;;;;;;;8.43;2.05;;;;;;;;;;4980377;28;20033;-71
2022/06/16 03:58:22;;;;;;;6.90;1.80;;;;;;;;;;4987340;28;20021;-71
2022/06/16 04:00:50;;;;;;;9.85;2.10;;;;;;;;;;4971504;28;20476;-71
2022/06/16 04:06:05;;;;;;;8.40;2.00;;;;;;;;;;4971838;28;20124;-70
2022/06/16 04:08:32;;;;;;;4.85;1.48;;;;;;;;;;4961959;28;20032;-70
2022/06/16 04:11:26;;;;;;;7.22;1.92;;;;;;;;;;4974076;28;20033;-71
2022/06/16 04:13:49;;;;;;;9.18;2.10;;;;;;;;;;4980699;28;20030;-71
2022/06/16 04:16:18;;;;;;;7.85;2.10;;;;;;;;;;4977481;28;20034;-71
2022/06/16 04:18:45;;;;;;;6.75;1.90;;;;;;;;;;4956117;28;20141;-71
2022/06/16 04:21:14;;;;;;;13.18;2.33;;;;;;;;;;4985936;28;20038;-72
2022/06/16 04:23:46;;;;;;;7.25;1.88;;;;;;;;;;4960779;28;20037;-71
2022/06/16 04:26:13;;;;;;;10.13;2.13;;;;;;;;;;4990336;28;20029;-72
2022/06/16 04:28:41;;;;;;;10.07;1.83;;;;;;;;;;4987826;28;20424;-71
2022/06/16 04:31:07;;;;;;;11.25;2.00;;;;;;;;;;4974903;28;20662;-72
2022/06/16 04:33:37;;;;;;;8.38;2.22;;;;;;;;;;4988398;28;20484;-76
2022/06/16 04:36:05;;;;;;;13.93;2.15;;;;;;;;;;4959146;28;20026;-77
2022/06/16 04:38:36;;;;;;;11.52;2.08;;;;;;;;;;4960347;28;20026;-76
2022/06/16 04:41:04;;;;;;;12.43;2.50;;;;;;;;;;4953045;28;20034;-76
2022/06/16 04:43:33;;;;;;;10.85;2.40;;;;;;;;;;4959512;28;20547;-75
2022/06/16 04:46:05;;;;;;;11.75;2.80;;;;;;;;;;4942950;28;20034;-77
2022/06/16 04:48:33;;;;;;;8.65;2.00;;;;;;;;;;4948437;28;20580;-71
2022/06/16 04:51:04;;;;;;;7.88;2.05;;;;;;;;;;4920903;28;20047;-74
2022/06/16 04:53:33;;;;;;;10.75;2.33;;;;;;;;;;4941507;28;20049;-72
2022/06/16 04:56:01;;;;;;;12.40;2.70;;;;;;;;;;4913818;28;22177;-71
2022/06/16 04:58:28;;;;;;;8.52;2.42;;;;;;;;;;4944538;28;20035;-72
2022/06/16 05:00:54;;;;;;;8.00;1.95;;;;;;;;;;4922116;28;20117;-72
2022/06/16 05:03:25;;;;;;;8.30;2.10;;;;;;;;;;4948000;28;20045;-72
2022/06/16 05:05:52;;;;;;;9.40;2.13;;;;;;;;;;4921579;28;20092;-71
2022/06/16 05:08:18;;;;;;;12.73;2.90;;;;;;;;;;4926131;28;20034;-71
2022/06/16 05:10:48;;;;;;;8.43;2.08;;;;;;;;;;4946994;28;20042;-71
2022/06/16 05:13:15;;;;;;;10.20;2.20;;;;;;;;;;4927763;28;20074;-75
2022/06/16 05:15:41;;;;;;;11.32;2.47;;;;;;;;;;4944735;28;20042;-74
2022/06/16 05:18:09;;;;;;;10.27;2.08;;;;;;;;;;4958734;28;20177;-78
2022/06/16 05:20:35;;;;;;;7.80;1.90;;;;;;;;;;4946429;28;20094;-71
2022/06/16 05:23:02;;;;;;;9.82;2.08;;;;;;;;;;4943464;28;20031;-70
2022/06/16 05:25:29;;;;;;;10.23;2.33;;;;;;;;;;4953492;28;20472;-73
2022/06/16 05:27:55;;;;;;;12.07;2.20;;;;;;;;;;4964332;28;20050;-72
2022/06/16 05:30:21;;;;;;;11.50;2.08;;;;;;;;;;4962509;28;20058;-70
2022/06/16 05:32:47;;;;;;;12.57;2.63;;;;;;;;;;4942504;28;20039;-72
2022/06/16 05:35:13;;;;;;;14.38;2.90;;;;;;;;;;4963055;28;20222;-73
2022/06/16 05:37:40;;;;;;;8.20;2.42;;;;;;;;;;4969013;28;20029;-73
2022/06/16 05:40:09;;;;;;;9.73;2.67;;;;;;;;;;4966352;28;20042;-72
2022/06/16 05:42:36;;;;;;;14.70;3.30;;;;;;;;;;4971907;28;20026;-72
2022/06/16 05:45:02;;;;;;;21.83;3.47;;;;;;;;;;4957056;28;20065;-71
2022/06/16 05:47:28;;;;;;;14.98;3.35;;;;;;;;;;4966302;28;20607;-71
2022/06/16 05:49:54;;;;;;;19.02;3.80;;;;;;;;;;4969543;28;20575;-70
2022/06/16 05:52:21;;;;;;;15.65;3.47;;;;;;;;;;4956296;28;20069;-71
2022/06/16 05:54:51;;;;;;;19.25;4.35;;;;;;;;;;4969741;28;20034;-71
2022/06/16 05:57:17;;;;;;;17.55;4.53;;;;;;;;;;4977702;28;20029;-72
2022/06/16 05:59:48;;;;;;;24.08;4.43;;;;;;;;;;4947486;28;20035;-72
2022/06/16 06:02:35;;;;;;;32.38;4.95;;;;;;;;;;4948160;28;20027;-72
2022/06/16 06:05:03;;;;;;;21.88;4.72;;;;;;;;;;4974144;28;20023;-72
2022/06/16 06:16:25;;;;;;;33.28;5.40;;;;;;;;;;4969472;28;20480;-71
2022/06/16 06:18:36;;;;;;;24.17;4.40;;;;;;;;;;4980872;28;19947;-76
2022/06/16 06:21:04;;;;;;;17.17;4.18;;;;;;;;;;4966662;28;20471;-76
2022/06/16 06:23:31;;;;;;;21.33;4.13;;;;;;;;;;4968697;28;20053;-77
2022/06/16 06:26:00;;;;;;;22.75;4.28;;;;;;;;;;4955226;28;21132;-73
2022/06/16 06:28:28;;;;;;;21.25;3.80;;;;;;;;;;4987837;28;20240;-75
2022/06/16 06:30:55;;;;;;;15.80;3.33;;;;;;;;;;4943422;28;20027;-77
2022/06/16 06:33:23;;;;;;;13.13;2.50;;;;;;;;;;4977996;28;20061;-75
2022/06/16 06:35:50;;;;;;;13.93;2.60;;;;;;;;;;4953424;28;20034;-76
2022/06/16 06:38:19;;;;;;;10.07;2.40;;;;;;;;;;4987141;28;20038;-76
2022/06/16 06:40:52;;;;;;;11.27;2.53;;;;;;;;;;4982810;28;20591;-77
2022/06/16 06:43:23;;;;;;;14.85;2.58;;;;;;;;;;4983509;28;20029;-73
2022/06/16 06:45:53;;;;;;;10.75;2.38;;;;;;;;;;4967329;28;20037;-75
2022/06/16 06:48:21;;;;;;;15.20;2.80;;;;;;;;;;4986841;28;20026;-73
2022/06/16 06:50:48;;;;;;;13.20;2.83;;;;;;;;;;4969562;28;20030;-75
2022/06/16 06:53:17;;;;;;;14.63;2.80;;;;;;;;;;4968244;28;20037;-74
2022/06/16 06:55:44;;;;;;;14.20;2.83;;;;;;;;;;4981429;28;20034;-74
2022/06/16 06:58:33;;;;;;;15.35;2.60;;;;;;;;;;4993535;28;20037;-74
2022/06/16 07:01:02;;;;;;;13.57;2.55;;;;;;;;;;4970443;28;20145;-74
2022/06/16 07:03:29;;;;;;;20.02;2.70;;;;;;;;;;4985414;28;20034;-74
2022/06/16 07:05:56;;;;;;;20.58;3.17;;;;;;;;;;4973448;28;20702;-75
2022/06/16 07:08:22;;;;;;;20.85;3.28;;;;;;;;;;4987425;28;20029;-74
2022/06/16 07:10:49;;;;;;;17.80;2.63;;;;;;;;;;4983988;28;20029;-74
2022/06/16 07:13:16;;;;;;;15.70;2.50;;;;;;;;;;4964744;28;20041;-74
2022/06/16 07:15:42;;;;;;;13.93;2.38;;;;;;;;;;4986088;28;20038;-75
2022/06/16 07:18:09;;;;;;;11.82;2.35;;;;;;;;;;4961139;28;20034;-75
2022/06/16 07:20:35;;;;;;;12.55;2.20;;;;;;;;;;4984296;28;20042;-75
2022/06/16 07:23:01;;;;;;;12.20;2.25;;;;;;;;;;4983750;28;20100;-75
2022/06/16 07:25:27;;;;;;;13.65;2.00;;;;;;;;;;4992493;28;20702;-75
2022/06/16 07:27:54;;;;;;;9.52;1.90;;;;;;;;;;4973252;28;20477;-75
2022/06/16 07:30:21;;;;;;;10.63;1.65;;;;;;;;;;4965239;28;20030;-74
2022/06/16 07:32:59;;;;;;;11.43;1.63;;;;;;;;;;4959367;28;20053;-73
2022/06/16 07:35:25;;;;;;;9.68;2.30;;;;;;;;;;5008252;28;20036;-76
2022/06/16 07:37:52;;;;;;;9.40;1.70;;;;;;;;;;4977589;28;20095;-75
2022/06/16 07:40:27;;;;;;;10.75;2.00;;;;;;;;;;4976815;28;20043;-76
2022/06/16 07:42:56;;;;;;;9.77;1.73;;;;;;;;;;4981629;28;20452;-75
2022/06/16 07:45:24;;;;;;;10.50;2.10;;;;;;;;;;4983440;28;20033;-77
2022/06/16 07:47:54;;;;;;;9.77;1.80;;;;;;;;;;4982015;28;20041;-75
2022/06/16 07:50:32;;;;;;;8.77;1.90;;;;;;;;;;4987426;28;20121;-77
2022/06/16 07:52:58;;;;;;;9.35;1.83;;;;;;;;;;4977268;28;20046;-75
2022/06/16 07:55:26;;;;;;;6.70;1.50;;;;;;;;;;4975939;28;20033;-71
2022/06/16 07:57:54;;;;;;;6.15;1.45;;;;;;;;;;4961115;28;20049;-73
2022/06/16 08:00:23;;;;;;;8.82;1.38;;;;;;;;;;4982294;28;20049;-73
2022/06/16 08:02:53;;;;;;;9.65;1.75;;;;;;;;;;4963617;28;20623;-73
2022/06/16 08:05:21;;;;;;;8.25;1.52;;;;;;;;;;4983590;28;20092;-73
2022/06/16 08:07:48;;;;;;;11.68;1.77;;;;;;;;;;4963864;28;20042;-71
2022/06/16 08:10:21;;;;;;;8.32;1.70;;;;;;;;;;4986616;28;20225;-71
2022/06/16 08:12:49;;;;;;;8.10;1.70;;;;;;;;;;4983785;28;20049;-72
2022/06/16 08:15:16;;;;;;;7.03;1.67;;;;;;;;;;4985364;28;20472;-73
2022/06/16 08:17:45;;;;;;;11.43;1.80;;;;;;;;;;4955969;28;20038;-72
2022/06/16 08:20:13;;;;;;;10.18;2.17;;;;;;;;;;4963444;28;20224;-71
2022/06/16 08:22:42;;;;;;;7.43;1.80;;;;;;;;;;4948335;28;20479;-72
2022/06/16 08:25:15;;;;;;;12.07;2.42;;;;;;;;;;4985861;28;20608;-72
2022/06/16 08:27:45;;;;;;;6.72;1.80;;;;;;;;;;4981606;28;20106;-72
2022/06/16 08:30:13;;;;;;;10.18;1.70;;;;;;;;;;4995340;28;20136;-75
2022/06/16 08:32:41;;;;;;;8.25;1.70;;;;;;;;;;4962619;28;20034;-74
2022/06/16 08:35:09;;;;;;;10.15;1.77;;;;;;;;;;4959433;28;20116;-76
2022/06/16 08:37:37;;;;;;;9.95;1.80;;;;;;;;;;4996528;28;20168;-77
2022/06/16 08:40:06;;;;;;;8.57;1.92;;;;;;;;;;4979833;28;20145;-76
2022/06/16 08:42:50;;;;;;;8.95;1.65;;;;;;;;;;4987869;28;20141;-76
2022/06/16 08:45:35;;;;;;;9.00;1.83;;;;;;;;;;4984243;28;20459;-76
2022/06/16 08:48:03;;;;;;;9.02;1.40;;;;;;;;;;4975803;28;20026;-75
2022/06/16 08:50:48;;;;;;;9.07;1.80;;;;;;;;;;4986529;28;20456;-76
2022/06/16 08:53:29;;;;;;;6.57;1.52;;;;;;;;;;4980538;28;20494;-76
2022/06/16 08:55:59;;;;;;;6.63;1.40;;;;;;;;;;4983125;28;20125;-78
2022/06/16 08:58:35;;;;;;;8.57;2.05;;;;;;;;;;4981649;28;20026;-74
2022/06/16 09:01:09;;;;;;;8.25;1.80;;;;;;;;;;4973276;28;20295;-74
2022/06/16 09:03:35;;;;;;;7.65;1.63;;;;;;;;;;4984133;28;20630;-75
2022/06/16 09:06:07;;;;;;;7.20;1.67;;;;;;;;;;4975721;28;20087;-75
2022/06/16 09:08:36;;;;;;;7.60;1.60;;;;;;;;;;4995137;28;20119;-75
2022/06/16 09:11:13;;;;;;;8.88;2.00;;;;;;;;;;4986735;28;20111;-76
2022/06/16 09:13:45;;;;;;;9.25;1.98;;;;;;;;;;4972632;28;20026;-75
2022/06/16 09:16:28;;;;;;;7.97;1.65;;;;;;;;;;4989592;28;20038;-75
2022/06/16 09:19:07;;;;;;;11.48;2.03;;;;;;;;;;4981497;28;20554;-74
2022/06/16 09:21:33;;;;;;;7.45;1.48;;;;;;;;;;4982920;28;20034;-74
2022/06/16 09:24:19;;;;;;;9.55;1.65;;;;;;;;;;4968621;28;21992;-73
2022/06/16 09:26:54;;;;;;;8.00;1.58;;;;;;;;;;4980748;28;20057;-75
2022/06/16 09:29:29;;;;;;;10.05;1.63;;;;;;;;;;4989889;28;20018;-76
2022/06/16 09:32:20;;;;;;;7.80;1.33;;;;;;;;;;4976948;28;20038;-75
2022/06/16 09:34:48;;;;;;;8.52;1.60;;;;;;;;;;4974265;28;20049;-76
2022/06/16 09:37:20;;;;;;;9.55;1.90;;;;;;;;;;4983881;28;20072;-75
2022/06/16 09:39:50;;;;;;;5.85;1.40;;;;;;;;;;4978049;28;20477;-75
2022/06/16 09:42:37;;;;;;;8.52;1.90;;;;;;;;;;4988398;28;20058;-70
2022/06/16 09:45:22;;;;;;;10.02;2.17;;;;;;;;;;4967070;28;20034;-71
2022/06/16 09:48:15;;;;;;;6.30;1.40;;;;;;;;;;4985912;28;20116;-70
2022/06/16 09:50:45;;;;;;;8.98;1.63;;;;;;;;;;4966868;28;20395;-71
2022/06/16 09:53:17;;;;;;;8.68;1.60;;;;;;;;;;4985429;28;20021;-71
2022/06/16 09:55:56;;;;;;;11.77;2.00;;;;;;;;;;4952557;28;20357;-70
2022/06/16 09:58:29;;;;;;;11.43;1.73;;;;;;;;;;4945909;28;20031;-71
2022/06/16 10:00:59;;;;;;;6.95;1.50;;;;;;;;;;4986796;28;20837;-72
2022/06/16 10:03:52;;;;;;;8.32;1.33;;;;;;;;;;4978422;28;20037;-71
2022/06/16 10:06:38;;;;;;;7.60;1.45;;;;;;;;;;4968866;28;20077;-70
2022/06/16 10:09:25;;;;;;;6.47;1.33;;;;;;;;;;4987037;28;20030;-72
2022/06/16 10:12:11;;;;;;;8.13;1.50;;;;;;;;;;4983454;28;20132;-72
2022/06/16 10:14:57;;;;;;;15.73;2.00;;;;;;;;;;4997438;28;20048;-77
2022/06/16 10:17:24;;;;;;;10.45;1.67;;;;;;;;;;4992437;28;20048;-76
2022/06/16 10:19:56;;;;;;;7.88;1.60;;;;;;;;;;4978343;28;20406;-76
2022/06/16 10:22:26;;;;;;;9.20;1.60;;;;;;;;;;4982827;28;20338;-75
2022/06/16 10:25:13;;;;;;;7.78;1.33;;;;;;;;;;4979335;28;20377;-75
2022/06/16 10:28:01;;;;;;;11.90;1.70;;;;;;;;;;4981761;28;20741;-77
2022/06/16 10:30:37;;;;;;;11.52;1.90;;;;;;;;;;4984627;28;20022;-74
2022/06/16 10:33:27;;;;;;;15.52;2.08;;;;;;;;;;4973893;28;20046;-74
2022/06/16 10:36:08;;;;;;;9.70;1.48;;;;;;;;;;4961436;28;20113;-75
2022/06/16 10:38:40;;;;;;;8.40;1.70;;;;;;;;;;4946727;28;20018;-74
2022/06/16 10:41:29;;;;;;;13.02;1.63;;;;;;;;;;4959934;28;20037;-74
2022/06/16 10:43:58;;;;;;;6.35;1.50;;;;;;;;;;4956067;28;20077;-75
2022/06/16 10:46:38;;;;;;;13.85;1.88;;;;;;;;;;4951119;28;20125;-74
2022/06/16 10:49:15;;;;;;;15.55;2.00;;;;;;;;;;4953805;28;20482;-75
2022/06/16 10:52:02;;;;;;;7.97;1.60;;;;;;;;;;4970580;28;20408;-73
2022/06/16 10:54:31;;;;;;;11.13;1.80;;;;;;;;;;4957193;28;20077;-73
2022/06/16 10:57:06;;;;;;;9.45;1.70;;;;;;;;;;4967884;28;20054;-73
2022/06/16 10:59:41;;;;;;;8.68;1.80;;;;;;;;;;4970229;28;20064;-73
2022/06/16 11:02:13;;;;;;;14.05;1.95;;;;;;;;;;4968766;28;20041;-72
2022/06/16 11:04:52;;;;;;;8.15;1.83;;;;;;;;;;4958915;28;20102;-73
2022/06/16 11:07:22;;;;;;;10.55;1.77;;;;;;;;;;4965693;28;20027;-73
2022/06/16 11:09:48;;;;;;;8.05;1.80;;;;;;;;;;4947378;28;21381;-74
2022/06/16 11:12:17;;;;;;;9.35;1.67;;;;;;;;;;4973242;28;20022;-72
2022/06/16 11:14:57;;;;;;;7.88;1.70;;;;;;;;;;4967074;28;20053;-72
2022/06/16 11:17:28;;;;;;;10.35;1.88;;;;;;;;;;4961883;28;20070;-71
2022/06/16 11:20:10;;;;;;;11.23;1.80;;;;;;;;;;4960997;28;20168;-72
2022/06/16 11:22:44;;;;;;;8.88;1.75;;;;;;;;;;4967758;28;20035;-73
2022/06/16 11:25:21;;;;;;;10.73;1.85;;;;;;;;;;4963630;28;20031;-73
2022/06/16 11:27:56;;;;;;;7.13;1.63;;;;;;;;;;4977774;28;20798;-74
2022/06/16 11:30:40;;;;;;;10.45;1.70;;;;;;;;;;4950374;28;20037;-74
2022/06/16 11:34:06;;;;;;;10.35;1.92;;;;;;;;;;4933719;28;20073;-75
2022/06/16 11:36:09;;;;;;;6.88;1.58;;;;;;;;;;4954913;28;20513;-74
2022/06/16 11:38:42;;;;;;;8.02;1.50;;;;;;;;;;4959060;28;20128;-73
2022/06/16 11:41:11;;;;;;;8.07;1.40;;;;;;;;;;4962386;28;20037;-72
2022/06/16 11:43:39;;;;;;;7.63;1.60;;;;;;;;;;4961412;28;20780;-75
2022/06/16 11:46:06;;;;;;;5.75;1.40;;;;;;;;;;4962551;28;20037;-75
2022/06/16 11:48:44;;;;;;;6.63;1.35;;;;;;;;;;4958466;28;20033;-74
2022/06/16 11:51:29;;;;;;;8.85;1.70;;;;;;;;;;4972784;28;20030;-74
2022/06/16 11:54:00;;;;;;;9.18;1.58;;;;;;;;;;4970409;28;23775;-74
2022/06/16 11:56:32;;;;;;;9.23;1.67;;;;;;;;;;4960420;28;20572;-74
2022/06/16 11:59:20;;;;;;;7.78;1.60;;;;;;;;;;4960480;28;20397;-74
2022/06/16 12:01:54;;;;;;;7.25;1.70;;;;;;;;;;4952616;28;20038;-74
2022/06/16 12:04:41;;;;;;;7.50;1.88;;;;;;;;;;4924527;28;20118;-73
2022/06/16 12:07:25;;;;;;;7.43;1.73;;;;;;;;;;4951494;28;20580;-71
2022/06/16 12:10:10;;;;;;;7.97;1.98;;;;;;;;;;4950864;28;20030;-72
2022/06/16 12:12:57;;;;;;;7.00;1.83;;;;;;;;;;4957258;28;20049;-71
2022/06/16 12:15:36;;;;;;;8.80;2.00;;;;;;;;;;4952965;28;20035;-73
2022/06/16 12:18:08;;;;;;;9.05;1.73;;;;;;;;;;4950396;28;20027;-73
2022/06/16 12:20:54;;;;;;;9.63;1.90;;;;;;;;;;4960386;28;20088;-73
2022/06/16 12:23:39;;;;;;;6.13;1.30;;;;;;;;;;4956952;28;20038;-71
2022/06/16 12:26:06;;;;;;;;;;;;;;;;;;4956121;28;20026;-73
2022/06/16 12:28:54;;;;;;;8.35;1.63;;;;;;;;;;4954886;28;20743;-73
2022/06/16 12:31:23;;;;;;;7.32;1.67;;;;;;;;;;4957857;28;20036;-72
2022/06/16 12:34:03;;;;;;;11.68;1.90;;;;;;;;;;4949788;28;20755;-73
2022/06/16 12:36:38;;;;;;;7.93;1.67;;;;;;;;;;4939104;28;20516;-73
2022/06/16 12:39:14;;;;;;;6.70;1.58;;;;;;;;;;4984389;28;20502;-73
2022/06/16 12:41:48;;;;;;;7.57;1.40;;;;;;;;;;4986808;28;20081;-73
2022/06/16 12:44:14;;;;;;;6.47;1.80;;;;;;;;;;4982006;28;20060;-73
2022/06/16 12:46:46;;;;;;;5.50;1.40;;;;;;;;;;4984598;28;20484;-74
2022/06/16 12:49:15;;;;;;;7.63;1.70;;;;;;;;;;4976120;28;20031;-74
2022/06/16 12:51:51;;;;;;;6.03;1.88;;;;;;;;;;4989795;28;20390;-74
2022/06/16 12:54:27;;;;;;;8.93;1.92;;;;;;;;;;4986775;28;20525;-73
2022/06/16 12:57:08;;;;;;;7.28;1.60;;;;;;;;;;4993003;28;20037;-73
2022/06/16 12:59:37;;;;;;;6.28;1.40;;;;;;;;;;4997311;28;21173;-75
2022/06/16 13:02:05;;;;;;;9.70;1.73;;;;;;;;;;4972957;28;20054;-75
2022/06/16 13:04:32;;;;;;;9.50;3.50;;;;;;;;;;4976166;28;20137;-75
2022/06/16 13:07:00;;;;;;;13.13;10.65;;;;;;;;;;4986777;28;20079;-75
2022/06/16 13:09:27;;;;;;;13.98;10.13;;;;;;;;;;4996260;28;20116;-75
2022/06/16 13:12:09;;;;;;;8.52;3.30;;;;;;;;;;4931159;28;21933;-78
2022/06/16 13:14:41;;;;;;;12.85;3.90;;;;;;;;;;4935816;28;20804;-74
2022/06/16 13:17:08;;;;;;;8.27;2.05;;;;;;;;;;4928222;28;20334;-76
2022/06/16 13:19:39;;;;;;;7.50;1.80;;;;;;;;;;4932038;28;20033;-74
2022/06/16 13:22:06;;;;;;;5.28;1.63;;;;;;;;;;4932738;28;20123;-78
2022/06/16 13:24:35;;;;;;;6.03;1.55;;;;;;;;;;4947870;28;20132;-71
2022/06/16 13:27:09;;;;;;;7.13;1.30;;;;;;;;;;4945349;28;20022;-77
2022/06/16 13:30:02;;;;;;;8.02;1.80;;;;;;;;;;4940794;28;20623;-75
2022/06/16 13:32:40;;;;;;;6.30;1.48;;;;;;;;;;4937973;28;20041;-77
2022/06/16 13:35:29;;;;;;;5.88;1.33;;;;;;;;;;4965380;28;20046;-71
2022/06/16 13:38:05;;;;;;;8.45;1.30;;;;;;;;;;4959078;28;20037;-75
2022/06/16 13:40:32;;;;;;;6.30;1.88;;;;;;;;;;4961808;28;20535;-73
2022/06/16 13:43:01;;;;;;;6.05;1.40;;;;;;;;;;4959187;28;20034;-73
2022/06/16 13:45:30;;;;;;;8.43;1.40;;;;;;;;;;4961866;28;20566;-72
2022/06/16 13:48:08;;;;;;;7.05;1.40;;;;;;;;;;4962405;28;20528;-74
2022/06/16 13:50:55;;;;;;;6.60;1.30;;;;;;;;;;4988021;28;20240;-74
2022/06/16 13:53:26;;;;;;;7.22;1.35;;;;;;;;;;4978436;28;20041;-73
2022/06/16 13:56:03;;;;;;;7.88;1.30;;;;;;;;;;4990882;28;20037;-72
2022/06/16 13:59:02;;;;;;;5.47;1.55;;;;;;;;;;4986791;28;20029;-72
2022/06/16 14:01:57;;;;;;;6.65;1.23;;;;;;;;;;4996809;28;20036;-75
2022/06/16 14:04:24;;;;;;;;;;;;;;;;;;4917368;28;20027;-72
2022/06/16 14:07:03;;;;;;;8.68;1.38;;;;;;;;;;4943863;28;19924;-73
2022/06/16 14:09:36;;;;;;;6.22;1.30;;;;;;;;;;4926212;28;20031;-80
2022/06/16 14:12:14;;;;;;;6.05;1.20;;;;;;;;;;4913500;28;20454;-80
2022/06/16 14:15:04;;;;;;;8.27;1.63;;;;;;;;;;4959051;28;20520;-75
2022/06/16 14:17:46;;;;;;;6.15;1.35;;;;;;;;;;4945728;28;20365;-79
2022/06/16 14:20:51;;;;;;;7.30;1.48;;;;;;;;;;4938183;28;20535;-78
2022/06/16 14:23:30;;;;;;;7.47;1.55;;;;;;;;;;4961083;28;20032;-79
2022/06/16 14:26:03;;;;;;;5.40;1.33;;;;;;;;;;4924127;28;20041;-76
2022/06/16 14:28:42;;;;;;;4.75;1.40;;;;;;;;;;4946479;28;20504;-74
2022/06/16 14:31:31;;;;;;;8.45;1.38;;;;;;;;;;4952118;28;20030;-76
2022/06/16 14:34:02;;;;;;;7.20;1.88;;;;;;;;;;4942261;28;20059;-76
2022/06/16 14:36:38;;;;;;;6.55;1.80;;;;;;;;;;4899105;28;20039;-76
2022/06/16 14:39:21;;;;;;;5.38;1.40;;;;;;;;;;4933766;28;20039;-76
2022/06/16 14:41:53;;;;;;;6.88;1.42;;;;;;;;;;4971841;28;20062;-76
2022/06/16 14:44:35;;;;;;;6.65;1.70;;;;;;;;;;4968381;28;20029;-77
2022/06/16 14:47:32;;;;;;;;;;;;;;;;;;;;;
2022/06/16 14:50:16;;;;;;;9.13;1.60;;;;;;;;;;4968968;28;20042;-77
2022/06/16 14:52:49;;;;;;;7.18;1.77;;;;;;;;;;4977276;28;20702;-75
2022/06/16 14:55:18;;;;;;;10.27;1.60;;;;;;;;;;4973623;28;20591;-78
2022/06/16 14:57:46;;;;;;;8.80;1.50;;;;;;;;;;4974027;28;20287;-76
2022/06/16 15:00:20;;;;;;;8.55;1.40;;;;;;;;;;4970107;28;20025;-74
2022/06/16 15:03:00;;;;;;;;;;;;;;;;;;;;;
2022/06/16 15:05:26;;;;;;;7.13;1.60;;;;;;;;;;4958450;28;20023;-78
2022/06/16 15:07:53;;;;;;;8.93;1.85;;;;;;;;;;4977421;28;20038;-78
2022/06/16 15:10:22;;;;;;;8.43;1.80;;;;;;;;;;4981654;28;20568;-77
2022/06/16 15:12:49;;;;;;;11.18;1.73;;;;;;;;;;4965887;28;20034;-78
2022/06/16 15:15:22;;;;;;;12.23;1.90;;;;;;;;;;4985153;28;20031;-78
2022/06/16 15:20:36;;;;;;;6.22;1.70;;;;;;;;;;4977370;28;20072;-78
2022/06/16 15:23:03;;;;;;;5.25;1.50;;;;;;;;;;4978743;28;20423;-78
2022/06/16 15:25:31;;;;;;;7.35;1.40;;;;;;;;;;4976222;28;20034;-77
2022/06/16 15:28:08;;;;;;;8.18;1.40;;;;;;;;;;4981580;28;20036;-78
2022/06/16 15:30:40;;;;;;;7.75;1.60;;;;;;;;;;4985859;28;20030;-79
2022/06/16 15:36:14;;;;;;;7.63;1.67;;;;;;;;;;5001968;28;20546;-78